createdAt,value
2018-12-16T00:00:05.250Z,15.90
2018-12-16T00:02:33.554Z,16.90
2018-12-16T00:05:01.787Z,16.07
2018-12-16T00:07:30.084Z,15.50
2018-12-16T00:09:58.386Z,15.10
2018-12-16T00:12:26.684Z,17.07
2018-12-16T00:14:54.928Z,14.17
2018-12-16T00:17:23.164Z,15.70
2018-12-16T00:19:51.403Z,18.97
2018-12-16T00:22:20.019Z,18.50
2018-12-16T00:24:48.264Z,16.48
2018-12-16T00:27:16.544Z,15.90
2018-12-16T00:29:44.809Z,18.47
2018-12-16T00:32:13.071Z,19.53
2018-12-16T00:34:41.303Z,16.40
2018-12-16T00:37:09.655Z,15.20
2018-12-16T00:39:37.883Z,16.50
2018-12-16T00:42:06.140Z,16.50
2018-12-16T00:44:34.425Z,16.63
2018-12-16T00:47:02.776Z,17.20
2018-12-16T00:49:31.078Z,17.30
2018-12-16T00:51:59.388Z,17.60
2018-12-16T00:54:27.618Z,18.30
2018-12-16T00:56:55.867Z,17.53
2018-12-16T00:59:24.116Z,17.40
2018-12-16T01:01:52.398Z,16.27
2018-12-16T01:04:20.693Z,20.47
2018-12-16T01:06:49.019Z,17.00
2018-12-16T01:09:17.411Z,16.83
2018-12-16T01:11:45.644Z,17.17
2018-12-16T01:14:13.936Z,16.63
2018-12-16T01:16:42.204Z,18.10
2018-12-16T01:19:10.467Z,17.40
2018-12-16T01:21:38.724Z,18.17
2018-12-16T01:24:07.081Z,19.23
2018-12-16T01:26:35.360Z,18.53
2018-12-16T01:29:03.736Z,19.30
2018-12-16T01:31:31.979Z,17.93
2018-12-16T01:34:00.260Z,16.53
2018-12-16T01:36:28.587Z,18.10
2018-12-16T01:38:56.824Z,19.13
2018-12-16T01:41:25.120Z,20.63
2018-12-16T01:43:53.412Z,18.97
2018-12-16T01:46:21.667Z,18.27
2018-12-16T01:48:49.966Z,18.97
2018-12-16T01:51:18.270Z,18.60
2018-12-16T01:53:46.675Z,18.23
2018-12-16T01:56:14.903Z,18.30
2018-12-16T01:58:43.268Z,17.43
2018-12-16T02:01:11.836Z,17.60
2018-12-16T02:03:40.124Z,19.60
2018-12-16T02:06:08.376Z,20.23
2018-12-16T02:08:36.659Z,21.37
2018-12-16T02:11:04.972Z,18.20
2018-12-16T02:13:33.295Z,20.70
2018-12-16T02:16:01.477Z,19.10
2018-12-16T02:18:29.770Z,21.97
2018-12-16T02:20:58.020Z,20.73
2018-12-16T02:23:26.316Z,21.13
2018-12-16T02:25:54.609Z,22.77
2018-12-16T02:28:23.016Z,23.47
2018-12-16T02:30:51.233Z,24.47
2018-12-16T02:33:19.628Z,20.27
2018-12-16T02:35:47.930Z,21.33
2018-12-16T02:38:16.177Z,25.40
2018-12-16T02:40:44.464Z,22.37
2018-12-16T02:43:12.840Z,22.37
2018-12-16T02:45:41.112Z,23.77
2018-12-16T02:48:10.209Z,22.33
2018-12-16T02:50:38.512Z,20.83
2018-12-16T02:53:06.805Z,21.53
2018-12-16T02:55:35.040Z,24.80
2018-12-16T02:58:03.412Z,23.90
2018-12-16T03:00:31.820Z,22.33
2018-12-16T03:03:00.200Z,21.37
2018-12-16T03:05:28.500Z,24.32
2018-12-16T03:07:56.831Z,22.07
2018-12-16T03:10:25.160Z,21.62
2018-12-16T03:12:53.577Z,22.30
2018-12-16T03:15:21.864Z,22.75
2018-12-16T03:17:50.213Z,25.93
2018-12-16T03:20:18.441Z,22.40
2018-12-16T03:22:46.786Z,23.55
2018-12-16T03:25:15.098Z,23.12
2018-12-16T03:27:43.365Z,24.33
2018-12-16T03:30:11.697Z,24.70
2018-12-16T03:32:40.071Z,23.20
2018-12-16T03:35:08.336Z,24.57
2018-12-16T03:37:36.574Z,23.00
2018-12-16T03:40:06.154Z,23.80
2018-12-16T03:42:34.527Z,22.67
2018-12-16T03:45:02.841Z,23.07
2018-12-16T03:47:31.125Z,25.47
2018-12-16T03:49:59.374Z,24.63
2018-12-16T03:52:27.603Z,24.13
2018-12-16T03:54:55.845Z,22.97
2018-12-16T03:57:24.103Z,24.82
2018-12-16T03:59:52.403Z,22.63
2018-12-16T04:02:20.661Z,23.40
2018-12-16T04:04:48.953Z,23.47
2018-12-16T04:07:17.304Z,23.20
2018-12-16T04:09:45.629Z,22.13
2018-12-16T04:12:13.870Z,23.93
2018-12-16T04:14:42.108Z,25.77
2018-12-16T04:17:10.355Z,22.00
2018-12-16T04:19:38.599Z,24.80
2018-12-16T04:22:06.877Z,26.17
2018-12-16T04:24:35.124Z,22.93
2018-12-16T04:27:03.399Z,23.20
2018-12-16T04:29:31.697Z,19.92
2018-12-16T04:31:59.983Z,23.10
2018-12-16T04:34:29.347Z,23.50
2018-12-16T04:36:57.591Z,21.52
2018-12-16T04:39:25.862Z,24.20
2018-12-16T04:41:54.143Z,24.85
2018-12-16T04:44:22.397Z,24.02
2018-12-16T04:46:50.687Z,26.80
2018-12-16T04:49:18.920Z,25.90
2018-12-16T04:51:47.164Z,22.15
2018-12-16T04:54:15.556Z,23.18
2018-12-16T04:56:43.915Z,23.67
2018-12-16T04:59:12.247Z,23.97
2018-12-16T05:01:40.485Z,22.50
2018-12-16T05:04:08.754Z,23.23
2018-12-16T05:06:37.027Z,22.70
2018-12-16T05:09:06.358Z,22.60
2018-12-16T05:11:34.668Z,26.10
2018-12-16T05:14:03.029Z,21.47
2018-12-16T05:16:31.359Z,25.43
2018-12-16T05:18:59.602Z,23.32
2018-12-16T05:21:27.907Z,23.90
2018-12-16T05:23:56.157Z,25.27
2018-12-16T05:26:24.430Z,24.17
2018-12-16T05:28:52.754Z,21.52
2018-12-16T05:31:20.993Z,24.50
2018-12-16T05:33:49.277Z,23.15
2018-12-16T05:36:17.528Z,23.87
2018-12-16T05:38:45.883Z,24.80
2018-12-16T05:41:14.211Z,23.40
2018-12-16T05:43:42.472Z,24.57
2018-12-16T05:46:10.703Z,23.17
2018-12-16T05:48:38.975Z,24.57
2018-12-16T05:51:07.547Z,25.52
2018-12-16T05:53:35.782Z,24.30
2018-12-16T05:56:04.666Z,24.30
2018-12-16T05:58:33.003Z,23.83
2018-12-16T06:01:01.859Z,22.93
2018-12-16T06:03:30.107Z,23.92
2018-12-16T06:05:58.359Z,22.48
2018-12-16T06:08:26.612Z,22.45
2018-12-16T06:10:54.884Z,23.60
2018-12-16T06:13:23.152Z,23.18
2018-12-16T06:15:51.380Z,23.85
2018-12-16T06:18:19.595Z,25.00
2018-12-16T06:20:47.857Z,22.98
2018-12-16T06:23:16.138Z,22.90
2018-12-16T06:25:44.440Z,21.53
2018-12-16T06:28:12.724Z,21.07
2018-12-16T06:30:41.484Z,22.47
2018-12-16T06:33:09.786Z,23.52
2018-12-16T06:35:38.039Z,24.57
2018-12-16T06:38:06.378Z,23.03
2018-12-16T06:40:34.783Z,22.90
2018-12-16T06:43:03.063Z,23.90
2018-12-16T06:45:31.360Z,22.20
2018-12-16T06:47:59.623Z,23.18
2018-12-16T06:50:27.916Z,22.32
2018-12-16T06:52:56.155Z,24.70
2018-12-16T06:55:24.461Z,22.67
2018-12-16T06:57:52.685Z,23.50
2018-12-16T07:00:20.941Z,23.10
2018-12-16T07:02:51.148Z,22.17
2018-12-16T07:05:19.411Z,23.80
2018-12-16T07:07:47.741Z,22.97
2018-12-16T07:10:16.128Z,23.40
2018-12-16T07:12:44.350Z,24.40
2018-12-16T07:15:12.710Z,22.60
2018-12-16T07:17:41.092Z,25.30
2018-12-16T07:20:09.437Z,22.20
2018-12-16T07:22:37.748Z,22.23
2018-12-16T07:25:06.296Z,23.33
2018-12-16T07:27:34.551Z,24.83
2018-12-16T07:30:02.909Z,26.33
2018-12-16T07:32:31.192Z,25.77
2018-12-16T07:34:59.507Z,23.57
2018-12-16T07:37:27.840Z,25.47
2018-12-16T07:39:56.083Z,26.07
2018-12-16T07:42:24.338Z,23.87
2018-12-16T07:44:52.691Z,26.63
2018-12-16T07:47:21.038Z,26.30
2018-12-16T07:49:49.294Z,25.93
2018-12-16T07:52:17.727Z,24.90
2018-12-16T07:54:46.112Z,24.23
2018-12-16T07:57:14.383Z,25.00
2018-12-16T07:59:42.672Z,23.00
2018-12-16T08:02:10.960Z,25.70
2018-12-16T08:04:39.305Z,25.20
2018-12-16T08:07:07.716Z,25.63
2018-12-16T08:09:36.059Z,24.90
2018-12-16T08:12:04.342Z,27.23
2018-12-16T08:14:32.630Z,26.60
2018-12-16T08:17:01.012Z,23.40
2018-12-16T08:19:29.318Z,24.57
2018-12-16T08:21:57.571Z,26.43
2018-12-16T08:24:25.825Z,22.77
2018-12-16T08:26:54.100Z,26.00
2018-12-16T08:29:22.360Z,25.53
2018-12-16T08:31:50.575Z,26.17
2018-12-16T08:34:19.116Z,26.07
2018-12-16T08:36:47.386Z,26.47
2018-12-16T08:39:15.687Z,25.60
2018-12-16T08:41:44.063Z,27.50
2018-12-16T08:44:12.303Z,26.67
2018-12-16T08:46:40.617Z,27.80
2018-12-16T08:49:08.867Z,25.87
2018-12-16T08:51:37.152Z,27.63
2018-12-16T08:54:05.453Z,28.90
2018-12-16T08:56:33.700Z,26.63
2018-12-16T08:59:01.976Z,26.47
2018-12-16T09:01:30.319Z,28.30
2018-12-16T09:03:58.759Z,30.37
2018-12-16T09:06:26.991Z,29.00
2018-12-16T09:08:55.603Z,29.77
2018-12-16T09:11:23.851Z,26.07
2018-12-16T09:13:52.140Z,29.60
2018-12-16T09:16:20.436Z,27.07
2018-12-16T09:18:48.681Z,30.57
2018-12-16T09:21:16.960Z,32.40
2018-12-16T09:23:45.261Z,27.80
2018-12-16T09:26:13.522Z,27.90
2018-12-16T09:28:41.813Z,27.60
2018-12-16T09:31:10.125Z,29.90
2018-12-16T09:33:38.355Z,30.47
2018-12-16T09:36:06.639Z,27.50
2018-12-16T09:38:35.012Z,28.30
2018-12-16T09:41:03.472Z,28.63
2018-12-16T09:43:31.705Z,28.63
2018-12-16T09:45:59.975Z,29.43
2018-12-16T09:48:28.243Z,26.43
2018-12-16T09:50:57.497Z,29.00
2018-12-16T09:53:25.725Z,27.67
2018-12-16T09:55:54.075Z,28.50
2018-12-16T09:58:22.355Z,28.57
2018-12-16T10:00:50.691Z,31.27
2018-12-16T10:03:18.908Z,30.13
2018-12-16T10:05:47.399Z,31.30
2018-12-16T10:08:15.910Z,29.10
2018-12-16T10:10:44.693Z,32.33
2018-12-16T10:13:12.961Z,29.50
2018-12-16T10:15:41.194Z,27.60
2018-12-16T10:18:09.478Z,29.07
2018-12-16T10:20:37.717Z,30.27
2018-12-16T10:23:05.959Z,30.20
2018-12-16T10:25:34.255Z,28.43
2018-12-16T10:28:02.506Z,28.87
2018-12-16T10:30:30.756Z,29.17
2018-12-16T10:32:59.358Z,31.20
2018-12-16T10:35:27.669Z,29.77
2018-12-16T10:37:55.927Z,30.77
2018-12-16T10:40:24.217Z,27.67
2018-12-16T10:42:52.473Z,28.63
2018-12-16T10:45:20.737Z,29.20
2018-12-16T10:47:49.175Z,31.90
2018-12-16T10:50:17.461Z,32.70
2018-12-16T10:52:45.831Z,31.70
2018-12-16T10:55:14.477Z,29.27
2018-12-16T10:57:42.749Z,28.43
2018-12-16T11:00:15.352Z,32.90
2018-12-16T11:02:43.580Z,29.23
2018-12-16T11:05:11.909Z,27.67
2018-12-16T11:07:40.165Z,29.50
2018-12-16T11:10:08.439Z,29.60
2018-12-16T11:12:37.315Z,32.57
2018-12-16T11:15:05.755Z,31.50
2018-12-16T11:17:34.039Z,27.10
2018-12-16T11:20:02.351Z,29.60
2018-12-16T11:22:30.600Z,31.30
2018-12-16T11:25:05.757Z,31.23
2018-12-16T11:27:30.080Z,30.37
2018-12-16T11:29:58.554Z,32.03
2018-12-16T11:32:26.791Z,30.90
2018-12-16T11:34:55.263Z,30.10
2018-12-16T11:37:24.861Z,28.90
2018-12-16T11:39:53.580Z,30.00
2018-12-16T11:42:22.557Z,30.60
2018-12-16T11:44:50.854Z,31.90
2018-12-16T11:47:19.079Z,31.60
2018-12-16T11:49:47.440Z,30.20
2018-12-16T11:52:15.750Z,28.57
2018-12-16T11:54:44.080Z,32.10
2018-12-16T11:57:12.346Z,28.57
2018-12-16T11:59:40.584Z,29.30
2018-12-16T12:02:08.831Z,31.90
2018-12-16T12:04:37.134Z,33.90
2018-12-16T12:07:05.391Z,30.70
2018-12-16T12:09:33.633Z,31.83
2018-12-16T12:12:02.228Z,29.27
2018-12-16T12:14:30.484Z,30.17
2018-12-16T12:16:58.863Z,30.90
2018-12-16T12:19:31.025Z,33.87
2018-12-16T12:22:04.328Z,31.80
2018-12-16T12:24:29.594Z,33.03
2018-12-16T12:26:57.919Z,32.27
2018-12-16T12:29:26.224Z,32.57
2018-12-16T12:31:54.463Z,32.00
2018-12-16T12:34:22.715Z,33.00
2018-12-16T12:36:50.951Z,31.43
2018-12-16T12:39:19.177Z,35.63
2018-12-16T12:41:47.528Z,30.90
2018-12-16T12:44:15.737Z,31.43
2018-12-16T12:46:44.016Z,30.53
2018-12-16T12:49:12.243Z,29.87
2018-12-16T12:51:40.601Z,32.40
2018-12-16T12:54:08.848Z,29.97
2018-12-16T12:56:37.127Z,32.10
2018-12-16T12:59:05.441Z,30.73
2018-12-16T13:01:33.703Z,34.27
2018-12-16T13:04:02.673Z,28.20
2018-12-16T13:06:30.877Z,30.23
2018-12-16T13:08:59.164Z,30.33
2018-12-16T13:11:27.620Z,32.20
2018-12-16T13:13:55.974Z,28.63
2018-12-16T13:16:24.356Z,30.87
2018-12-16T13:18:52.895Z,31.27
2018-12-16T13:21:21.177Z,33.50
2018-12-16T13:23:49.437Z,32.47
2018-12-16T13:26:17.707Z,33.87
2018-12-16T13:28:46.035Z,31.60
2018-12-16T13:31:14.415Z,32.83
2018-12-16T13:33:42.682Z,32.40
2018-12-16T13:36:11.004Z,34.10
2018-12-16T13:38:39.296Z,32.60
2018-12-16T13:41:07.578Z,31.43
2018-12-16T13:43:35.882Z,33.57
2018-12-16T13:46:04.220Z,31.33
2018-12-16T13:48:32.514Z,34.27
2018-12-16T13:51:00.787Z,30.80
2018-12-16T13:53:29.002Z,33.27
2018-12-16T13:55:57.312Z,32.73
2018-12-16T13:58:25.557Z,32.30
2018-12-16T14:00:53.843Z,32.50
2018-12-16T14:03:22.077Z,32.13
2018-12-16T14:05:50.344Z,35.00
2018-12-16T14:08:18.581Z,34.03
2018-12-16T14:10:46.834Z,33.60
2018-12-16T14:13:15.099Z,33.83
2018-12-16T14:15:43.333Z,32.47
2018-12-16T14:18:11.663Z,31.80
2018-12-16T14:20:40.015Z,33.50
2018-12-16T14:23:08.247Z,29.33
2018-12-16T14:25:36.511Z,36.47
2018-12-16T14:28:04.873Z,31.77
2018-12-16T14:30:33.215Z,31.47
2018-12-16T14:33:01.578Z,31.83
2018-12-16T14:35:30.111Z,31.83
2018-12-16T14:37:58.756Z,33.20
2018-12-16T14:40:27.035Z,30.30
2018-12-16T14:42:55.307Z,34.00
2018-12-16T14:45:23.597Z,32.30
2018-12-16T14:47:51.884Z,30.57
2018-12-16T14:50:20.110Z,32.80
2018-12-16T14:52:48.363Z,33.97
2018-12-16T14:55:16.682Z,32.43
2018-12-16T14:57:45.037Z,33.67
2018-12-16T15:00:13.560Z,32.90
2018-12-16T15:02:41.936Z,30.40
2018-12-16T15:05:10.329Z,31.47
2018-12-16T15:07:38.604Z,34.37
2018-12-16T15:10:07.459Z,33.27
2018-12-16T15:12:35.783Z,33.20
2018-12-16T15:15:04.410Z,32.07
2018-12-16T15:17:32.760Z,31.83
2018-12-16T15:20:01.022Z,32.53
2018-12-16T15:22:29.271Z,31.40
2018-12-16T15:24:57.569Z,33.10
2018-12-16T15:27:25.835Z,30.90
2018-12-16T15:29:54.123Z,34.27
2018-12-16T15:32:22.416Z,34.20
2018-12-16T15:34:50.657Z,31.20
2018-12-16T15:37:18.972Z,38.80
2018-12-16T15:39:47.225Z,32.70
2018-12-16T15:42:15.508Z,36.73
2018-12-16T15:44:43.783Z,33.73
2018-12-16T15:47:12.055Z,31.47
2018-12-16T15:49:40.365Z,33.60
2018-12-16T15:52:08.568Z,34.30
2018-12-16T15:54:36.856Z,33.00
2018-12-16T15:57:05.147Z,31.83
2018-12-16T15:59:33.440Z,33.23
2018-12-16T16:02:01.704Z,33.83
2018-12-16T16:04:29.949Z,31.37
2018-12-16T16:06:58.251Z,32.50
2018-12-16T16:09:27.088Z,32.20
2018-12-16T16:11:55.413Z,32.90
2018-12-16T16:14:23.647Z,34.63
2018-12-16T16:16:51.909Z,30.80
2018-12-16T16:19:20.195Z,34.43
2018-12-16T16:21:48.415Z,33.50
2018-12-16T16:24:16.753Z,34.47
2018-12-16T16:26:45.004Z,32.90
2018-12-16T16:29:13.252Z,33.90
2018-12-16T16:31:41.543Z,32.77
2018-12-16T16:34:09.800Z,32.60
2018-12-16T16:36:38.056Z,30.00
2018-12-16T16:39:06.552Z,32.37
2018-12-16T16:41:34.980Z,31.80
2018-12-16T16:44:04.429Z,32.70
2018-12-16T16:46:32.895Z,31.90
2018-12-16T16:49:01.414Z,30.60
2018-12-16T16:51:31.739Z,32.10
2018-12-16T16:54:00.303Z,33.17
2018-12-16T16:56:28.511Z,30.80
2018-12-16T17:01:31.371Z,30.43
2018-12-16T17:03:59.701Z,30.80
2018-12-16T17:06:27.932Z,33.03
2018-12-16T17:08:56.217Z,28.90
2018-12-16T17:11:25.201Z,30.40
2018-12-16T17:13:54.430Z,31.13
2018-12-16T17:16:22.734Z,28.97
2018-12-16T17:18:51.239Z,30.13
2018-12-16T17:21:19.460Z,28.93
2018-12-16T17:23:47.729Z,33.00
2018-12-16T17:26:16.022Z,29.80
2018-12-16T17:28:45.073Z,28.93
2018-12-16T17:31:13.328Z,31.90
2018-12-16T17:33:41.620Z,29.13
2018-12-16T17:36:09.896Z,28.20
2018-12-16T17:38:38.224Z,29.40
2018-12-16T17:41:06.521Z,28.77
2018-12-16T17:43:34.787Z,27.87
2018-12-16T17:46:03.076Z,29.43
2018-12-16T17:48:31.793Z,28.77
2018-12-16T17:51:00.013Z,29.53
2018-12-16T17:53:28.263Z,28.10
2018-12-16T17:55:56.772Z,31.33
2018-12-16T17:58:25.615Z,29.10
2018-12-16T18:00:53.987Z,30.27
2018-12-16T18:03:22.247Z,30.07
2018-12-16T18:05:50.568Z,26.90
2018-12-16T18:08:18.807Z,29.23
2018-12-16T18:10:47.124Z,31.83
2018-12-16T18:13:15.333Z,31.50
2018-12-16T18:15:43.624Z,30.27
2018-12-16T18:18:11.895Z,28.77
2018-12-16T18:20:40.114Z,29.10
2018-12-16T18:23:08.391Z,32.37
2018-12-16T18:25:36.773Z,31.60
2018-12-16T18:28:05.052Z,29.63
2018-12-16T18:30:33.383Z,30.73
2018-12-16T18:33:01.915Z,29.27
2018-12-16T18:35:30.171Z,28.80
2018-12-16T18:37:58.590Z,31.70
2018-12-16T18:40:26.897Z,32.17
2018-12-16T18:42:55.151Z,31.70
2018-12-16T18:45:23.440Z,32.00
2018-12-16T18:47:51.747Z,29.63
2018-12-16T18:50:19.998Z,28.60
2018-12-16T18:52:48.284Z,32.00
2018-12-16T18:55:16.624Z,31.00
2018-12-16T18:57:44.936Z,31.20
2018-12-16T19:00:13.622Z,28.00
2018-12-16T19:02:41.888Z,30.10
2018-12-16T19:05:10.152Z,32.27
2018-12-16T19:07:38.421Z,30.40
2018-12-16T19:10:07.410Z,30.47
2018-12-16T19:12:35.773Z,31.33
2018-12-16T19:15:06.113Z,29.20
2018-12-16T19:17:34.536Z,26.80
2018-12-16T19:20:03.438Z,29.00
2018-12-16T19:22:31.696Z,29.43
2018-12-16T19:24:59.970Z,27.53
2018-12-16T19:27:28.244Z,28.87
2018-12-16T19:29:56.504Z,27.60
2018-12-16T19:32:24.819Z,30.23
2018-12-16T19:34:53.046Z,29.80
2018-12-16T19:37:21.312Z,30.40
2018-12-16T19:39:49.595Z,28.30
2018-12-16T19:42:17.871Z,29.20
2018-12-16T19:44:46.154Z,29.67
2018-12-16T19:47:14.412Z,30.57
2018-12-16T19:49:42.647Z,28.67
2018-12-16T19:52:10.943Z,29.23
2018-12-16T19:54:39.566Z,28.57
2018-12-16T19:57:07.871Z,31.37
2018-12-16T19:59:36.147Z,29.67
2018-12-16T20:02:04.399Z,29.90
2018-12-16T20:04:38.256Z,29.43
2018-12-16T20:07:06.528Z,28.13
2018-12-16T20:09:34.844Z,31.53
2018-12-16T20:12:03.223Z,29.23
2018-12-16T20:14:31.471Z,28.40
2018-12-16T20:16:59.740Z,30.07
2018-12-16T20:19:28.114Z,29.93
2018-12-16T20:21:56.432Z,29.40
2018-12-16T20:24:26.187Z,32.43
2018-12-16T20:26:54.660Z,28.93
2018-12-16T20:29:22.977Z,28.10
2018-12-16T20:31:51.235Z,30.20
2018-12-16T20:34:19.469Z,28.17
2018-12-16T20:36:47.915Z,27.73
2018-12-16T20:39:16.168Z,30.07
2018-12-16T20:41:44.434Z,26.67
2018-12-16T20:44:12.704Z,27.33
2018-12-16T20:46:40.997Z,26.87
2018-12-16T20:49:09.264Z,25.60
2018-12-16T20:51:37.596Z,26.47
2018-12-16T20:54:05.930Z,25.23
2018-12-16T20:56:34.167Z,26.37
2018-12-16T20:59:02.487Z,25.40
2018-12-16T21:01:30.715Z,26.27
2018-12-16T21:03:59.055Z,27.70
2018-12-16T21:06:27.294Z,27.40
2018-12-16T21:08:55.547Z,24.80
2018-12-16T21:11:29.609Z,23.87
2018-12-16T21:14:03.630Z,25.17
2018-12-16T21:16:37.522Z,26.37
2018-12-16T21:19:05.776Z,23.90
2018-12-16T21:21:34.053Z,25.97
2018-12-16T21:24:02.603Z,25.10
2018-12-16T21:26:30.890Z,24.30
2018-12-16T21:28:59.133Z,24.07
2018-12-16T21:31:27.421Z,24.50
2018-12-16T21:33:55.686Z,24.70
2018-12-16T21:36:23.936Z,25.33
2018-12-16T21:38:53.186Z,25.50
2018-12-16T21:41:21.450Z,25.60
2018-12-16T21:43:49.749Z,25.77
2018-12-16T21:46:17.983Z,25.00
2018-12-16T21:48:46.242Z,24.07
2018-12-16T21:51:14.499Z,22.23
2018-12-16T21:53:42.915Z,24.70
2018-12-16T21:56:11.216Z,25.23
2018-12-16T21:58:39.637Z,25.63
2018-12-16T22:01:07.909Z,24.00
2018-12-16T22:03:36.376Z,25.17
2018-12-16T22:06:04.754Z,25.50
2018-12-16T22:08:33.051Z,26.53
2018-12-16T22:11:01.275Z,26.53
2018-12-16T22:13:29.563Z,24.90
2018-12-16T22:15:57.900Z,26.73
2018-12-16T22:18:26.171Z,27.17
2018-12-16T22:20:54.454Z,26.23
2018-12-16T22:23:22.981Z,25.30
2018-12-16T22:25:51.313Z,24.63
2018-12-16T22:28:19.590Z,23.97
2018-12-16T22:30:48.341Z,26.70
2018-12-16T22:33:16.572Z,24.70
2018-12-16T22:35:44.822Z,25.10
2018-12-16T22:38:13.196Z,28.23
2018-12-16T22:40:41.742Z,24.23
2018-12-16T22:43:10.070Z,26.03
2018-12-16T22:45:38.303Z,24.37
2018-12-16T22:48:06.576Z,25.63
2018-12-16T22:50:34.800Z,26.83
2018-12-16T22:53:03.226Z,25.40
2018-12-16T22:55:31.504Z,25.43
2018-12-16T22:57:59.744Z,24.20
2018-12-16T23:00:40.434Z,24.80
2018-12-16T23:03:09.688Z,23.57
2018-12-16T23:05:37.980Z,23.47
2018-12-16T23:08:06.258Z,25.43
2018-12-16T23:10:34.488Z,21.80
2018-12-16T23:13:02.804Z,22.97
2018-12-16T23:15:31.075Z,22.37
2018-12-16T23:17:59.385Z,22.47
2018-12-16T23:20:29.426Z,21.10
2018-12-16T23:22:57.660Z,21.50
2018-12-16T23:25:25.930Z,21.57
2018-12-16T23:27:54.493Z,22.20
2018-12-16T23:30:22.799Z,23.63
2018-12-16T23:32:51.097Z,21.20
2018-12-16T23:35:19.324Z,21.93
2018-12-16T23:37:47.565Z,20.17
2018-12-16T23:40:15.978Z,22.40
2018-12-16T23:42:44.218Z,21.07
2018-12-16T23:45:12.598Z,19.03
2018-12-16T23:47:40.871Z,19.00
2018-12-16T23:50:09.185Z,20.30
2018-12-16T23:52:37.437Z,19.57
2018-12-16T23:55:05.749Z,19.80
2018-12-16T23:57:34.028Z,20.03
